Hawks, Michigan
Current Conditions -  °F | °C
As of 12:54 PM on Monday 22 Dec 2014 (Local Time) from KPZQ Reporting Station
Broken Clouds Broken Clouds  
Wind Chill: -4°   Ceiling: 6500
Heat Index:   Visibility: 10mi
Dew Point: -2°   Wind: 12mph
Humidity: 82%   Direction: 140°SE
Pressure: 30.05"   Gusts: NA
Location:  45.3°N, 83.89°W
Report Text: KPZQ 221754Z AUTO 14010KT 10SM BKN065 BKN085 01/M02 A3005 RMK AO2 T00101017
Loading
Personal Weather Stations






























Interactive Weather Map New forecast layout! Learn more

10-Day Weather Forecast

Advertisements
Track Severe Weather on mobile